Annabella, Utah
Current Conditions -  °F | °C
As of 6:15 PM on Monday 20 Oct 2014 (Local Time) from KDTA Reporting Station
Clear Clear  
Wind Chill: 74°   Ceiling: Unl
Heat Index: 74°   Visibility: 10mi
Dew Point: 35°   Wind: 5mph
Humidity: 25%   Direction: 160°SSE
Pressure: 29.95"   Gusts: NA
Location:  38.71°N, 112.06°W
Report Text: KDTA 210015Z AUTO 16004KT 10SM CLR 23/02 A2995 RMK AO1 T02310017
Loading
Personal Weather Stations






























Interactive Weather Map
Tropical Storm Tracking
New forecast layout! Learn more

10-Day Weather Forecast

Advertisements
Track Severe Weather on mobile